createdAt,value
2022-08-05T00:01:48.864Z,99986.56
2022-08-05T00:04:55.579Z,99996.16
2022-08-05T00:08:00.978Z,100011.84
2022-08-05T00:11:20.281Z,100007.94
2022-08-05T00:14:27.682Z,100010.38
2022-08-05T00:17:31.015Z,100014.09
2022-08-05T00:20:32.512Z,100015.63
2022-08-05T00:23:45.956Z,100018.50
2022-08-05T00:26:51.961Z,100014.44
2022-08-05T00:29:54.331Z,100012.63
2022-08-05T00:32:57.833Z,100022.59
2022-08-05T00:36:16.258Z,100020.28
2022-08-05T00:39:21.221Z,100021.69
2022-08-05T00:42:33.708Z,100038.16
2022-08-05T00:45:42.944Z,100034.06
2022-08-05T00:48:50.261Z,100027.47
2022-08-05T00:51:52.845Z,100036.66
2022-08-05T00:54:54.615Z,100033.63
2022-08-05T00:57:58.902Z,100029.22
2022-08-05T01:01:00.721Z,100030.94
2022-08-05T01:04:03.456Z,100027.69
2022-08-05T01:07:15.266Z,100022.97
2022-08-05T01:10:40.382Z,100014.00
2022-08-05T01:14:15.531Z,100003.16
2022-08-05T01:17:24.031Z,99997.38
2022-08-05T01:20:36.983Z,100007.03
2022-08-05T01:24:14.163Z,99984.19
2022-08-05T01:27:24.351Z,99989.78
2022-08-05T01:30:33.797Z,99974.34
2022-08-05T01:33:43.489Z,99955.06
2022-08-05T01:36:56.336Z,99955.41
2022-08-05T01:40:03.646Z,99962.84
2022-08-05T01:43:06.821Z,99958.63
2022-08-05T01:46:43.184Z,99981.78
2022-08-05T01:50:01.599Z,99988.56
2022-08-05T01:53:09.927Z,99992.97
2022-08-05T01:58:29.306Z,100005.47
2022-08-05T01:59:39.778Z,99983.69
2022-08-05T02:02:54.475Z,99985.03
2022-08-05T02:05:59.654Z,99985.16
2022-08-05T02:09:01.565Z,99981.97
2022-08-05T02:12:06.343Z,99976.72
2022-08-05T02:15:25.968Z,99968.44
2022-08-05T02:19:09.216Z,99985.22
2022-08-05T02:22:26.757Z,99985.34
2022-08-05T02:25:49.229Z,100001.44
2022-08-05T02:28:54.620Z,100002.25
2022-08-05T02:31:58.015Z,100011.59
2022-08-05T02:35:02.099Z,100012.94
2022-08-05T02:38:19.457Z,100024.75
2022-08-05T02:41:28.946Z,100034.06
2022-08-05T02:44:40.826Z,100036.44
2022-08-05T02:48:06.427Z,100025.81
2022-08-05T02:51:06.574Z,100013.44
2022-08-05T02:54:36.264Z,100024.44
2022-08-05T02:58:12.160Z,100036.59
2022-08-05T03:01:00.733Z,100052.31
2022-08-05T03:04:12.015Z,100050.63
2022-08-05T03:07:24.638Z,100054.81
2022-08-05T03:10:37.417Z,100039.78
2022-08-05T03:13:51.853Z,100040.63
2022-08-05T03:17:00.797Z,100036.41
2022-08-05T03:20:02.433Z,100034.59
2022-08-05T03:23:06.290Z,100027.97
2022-08-05T03:26:30.968Z,100023.41
2022-08-05T03:29:45.392Z,100012.75
2022-08-05T03:32:51.557Z,99996.69
2022-08-05T03:35:56.792Z,100002.44
2022-08-05T03:38:58.655Z,100021.72
2022-08-05T03:42:00.223Z,100059.59
2022-08-05T03:45:22.652Z,100111.47
2022-08-05T03:48:26.282Z,100141.38
2022-08-05T03:52:37.187Z,100158.13
2022-08-05T03:56:05.719Z,100163.75
2022-08-05T03:58:35.335Z,100134.56
2022-08-05T04:01:40.210Z,100142.97
2022-08-05T04:04:43.531Z,100160.66
2022-08-05T04:07:57.529Z,100187.47
2022-08-05T04:11:02.164Z,100163.38
2022-08-05T04:14:04.426Z,100152.41
2022-08-05T04:17:08.010Z,100172.13
2022-08-05T04:20:18.004Z,100195.03
2022-08-05T04:24:00.217Z,100212.16
2022-08-05T04:26:46.742Z,100215.03
2022-08-05T04:29:48.422Z,100228.06
2022-08-05T04:32:49.872Z,100235.44
2022-08-05T04:36:16.193Z,100245.06
2022-08-05T04:39:12.730Z,100250.69
2022-08-05T04:42:14.448Z,100258.34
2022-08-05T04:45:31.320Z,100265.19
2022-08-05T04:48:37.370Z,100266.28
2022-08-05T04:51:39.174Z,100283.59
2022-08-05T04:54:40.598Z,100292.66
2022-08-05T04:57:47.609Z,100305.69
2022-08-05T05:00:53.017Z,100314.00
2022-08-05T05:03:54.470Z,100327.91
2022-08-05T05:06:58.284Z,100327.22
2022-08-05T05:10:04.030Z,100332.31
2022-08-05T05:13:05.434Z,100335.84
2022-08-05T05:16:07.262Z,100344.06
2022-08-05T05:19:18.608Z,100347.66
2022-08-05T05:22:23.888Z,100347.53
2022-08-05T05:25:32.472Z,100345.31
2022-08-05T05:28:38.883Z,100343.91
2022-08-05T05:31:46.268Z,100348.47
2022-08-05T05:34:48.118Z,100318.13
2022-08-05T05:38:01.738Z,100316.84
2022-08-05T05:41:03.867Z,100320.53
2022-08-05T05:44:36.079Z,100334.13
2022-08-05T05:48:06.000Z,100341.50
2022-08-05T05:50:52.463Z,100344.75
2022-08-05T05:53:58.811Z,100330.59
2022-08-05T05:57:01.281Z,100337.53
2022-08-05T06:00:10.115Z,100327.44
2022-08-05T06:03:40.691Z,100341.22
2022-08-05T06:06:37.755Z,100347.22
2022-08-05T06:10:00.071Z,100341.38
2022-08-05T06:13:03.786Z,100334.16
2022-08-05T06:16:28.194Z,100330.34
2022-08-05T06:19:34.875Z,100326.31
2022-08-05T06:22:37.327Z,100317.25
2022-08-05T06:26:12.943Z,100324.19
2022-08-05T06:29:23.789Z,100307.00
2022-08-05T06:32:28.974Z,100305.81
2022-08-05T06:36:06.972Z,100316.59
2022-08-05T06:38:54.597Z,100322.78
2022-08-05T06:41:58.888Z,100327.47
2022-08-05T06:45:00.618Z,100328.47
2022-08-05T06:48:35.940Z,100319.38
2022-08-05T06:51:30.707Z,100326.00
2022-08-05T06:54:32.957Z,100331.03
2022-08-05T06:57:58.199Z,100336.38
2022-08-05T07:01:00.013Z,100331.25
2022-08-05T07:04:02.461Z,100337.47
2022-08-05T07:07:07.933Z,100338.41
2022-08-05T07:10:10.065Z,100342.72
2022-08-05T07:13:59.237Z,100344.22
2022-08-05T07:17:58.330Z,100351.63
2022-08-05T07:20:39.096Z,100358.03
2022-08-05T07:23:49.123Z,100358.59
2022-08-05T07:26:53.656Z,100362.78
2022-08-05T07:30:24.749Z,100367.19
2022-08-05T07:33:21.365Z,100368.75
2022-08-05T07:36:38.981Z,100370.31
2022-08-05T07:40:27.008Z,100374.56
2022-08-05T07:43:04.899Z,100389.75
2022-08-05T07:46:25.265Z,100386.00
2022-08-05T07:49:27.036Z,100379.25
2022-08-05T07:52:28.556Z,100376.50
2022-08-05T07:55:44.215Z,100377.88
2022-08-05T07:58:57.553Z,100373.66
2022-08-05T08:02:02.274Z,100374.13
2022-08-05T08:05:05.046Z,100379.78
2022-08-05T08:08:06.479Z,100370.69
2022-08-05T08:11:16.149Z,100367.13
2022-08-05T08:14:18.974Z,100385.22
2022-08-05T08:17:21.491Z,100388.22
2022-08-05T08:20:59.908Z,100384.47
2022-08-05T08:24:03.101Z,100383.44
2022-08-05T08:27:07.271Z,100368.50
2022-08-05T08:30:27.649Z,100365.09
2022-08-05T08:33:37.438Z,100337.41
2022-08-05T08:36:47.617Z,100321.19
2022-08-05T08:39:54.285Z,100311.06
2022-08-05T08:42:56.785Z,100287.50
2022-08-05T08:45:59.349Z,100270.06
2022-08-05T08:50:07.691Z,100277.19
2022-08-05T08:52:30.198Z,100272.78
2022-08-05T08:56:03.606Z,100254.50
2022-08-05T08:58:59.119Z,100258.03
2022-08-05T09:02:08.605Z,100261.53
2022-08-05T09:05:16.381Z,100254.13
2022-08-05T09:08:19.438Z,100245.34
2022-08-05T09:11:51.524Z,100257.03
2022-08-05T09:14:58.931Z,100262.44
2022-08-05T09:18:08.842Z,100274.50
2022-08-05T09:21:11.688Z,100277.69
2022-08-05T09:24:22.596Z,100282.94
2022-08-05T09:28:05.054Z,100295.19
2022-08-05T09:31:23.213Z,100311.09
2022-08-05T09:34:54.935Z,100317.53
2022-08-05T09:38:12.310Z,100325.00
2022-08-05T09:41:18.641Z,100328.72
2022-08-05T09:44:37.106Z,100333.94
2022-08-05T09:47:55.841Z,100326.38
2022-08-05T09:51:01.585Z,100327.06
2022-08-05T09:54:05.305Z,100320.06
2022-08-05T09:57:23.185Z,100317.00
2022-08-05T10:00:25.834Z,100308.03
2022-08-05T10:03:56.575Z,100301.91
2022-08-05T10:06:59.285Z,100298.81
2022-08-05T10:10:15.222Z,100300.19
2022-08-05T10:13:43.888Z,100305.25
2022-08-05T10:16:52.374Z,100309.09
2022-08-05T10:20:04.488Z,100304.75
2022-08-05T10:23:34.431Z,100313.16
2022-08-05T10:26:48.864Z,100307.94
2022-08-05T10:30:06.519Z,100310.66
2022-08-05T10:33:14.659Z,100306.78
2022-08-05T10:36:16.850Z,100314.19
2022-08-05T10:40:04.263Z,100312.09
2022-08-05T10:42:56.222Z,100322.50
2022-08-05T10:46:06.215Z,100314.84
2022-08-05T10:49:10.503Z,100310.13
2022-08-05T10:52:52.340Z,100314.03
2022-08-05T10:56:21.031Z,100307.16
2022-08-05T11:00:02.128Z,100302.69
2022-08-05T11:03:23.104Z,100305.72
2022-08-05T11:06:31.192Z,100303.44
2022-08-05T11:10:07.723Z,100302.69
2022-08-05T11:13:55.050Z,100307.16
2022-08-05T11:17:57.863Z,100314.47
2022-08-05T11:20:50.958Z,100319.16
2022-08-05T11:24:04.140Z,100321.44
2022-08-05T11:27:50.768Z,100321.53
2022-08-05T11:30:58.552Z,100320.84
2022-08-05T11:34:03.113Z,100330.97
2022-08-05T11:37:06.151Z,100324.13
2022-08-05T11:41:14.019Z,100328.72
2022-08-05T11:44:40.834Z,100326.31
2022-08-05T11:47:49.523Z,100330.72
2022-08-05T11:50:53.068Z,100339.78
2022-08-05T11:53:56.187Z,100333.34
2022-08-05T11:56:58.015Z,100330.63
2022-08-05T12:00:03.747Z,100342.69
2022-08-05T12:03:28.494Z,100334.19
2022-08-05T12:06:35.462Z,100345.53
2022-08-05T12:09:54.393Z,100347.00
2022-08-05T12:13:03.782Z,100352.16
2022-08-05T12:16:19.053Z,100349.47
2022-08-05T12:20:27.152Z,100350.34
2022-08-05T12:22:46.143Z,100347.44
2022-08-05T12:25:53.465Z,100347.16
2022-08-05T12:28:54.949Z,100349.59
2022-08-05T12:32:01.974Z,100348.78
2022-08-05T12:35:05.302Z,100344.34
2022-08-05T12:38:10.174Z,100351.47
2022-08-05T12:41:14.046Z,100355.50
2022-08-05T12:44:32.585Z,100358.94
2022-08-05T12:48:01.014Z,100369.06
2022-08-05T12:52:10.949Z,100366.28
2022-08-05T12:54:35.714Z,100362.44
2022-08-05T12:58:50.934Z,100372.09
2022-08-05T13:02:02.216Z,100370.28
2022-08-05T13:04:21.684Z,100378.63
2022-08-05T13:10:50.758Z,100381.25
2022-08-05T13:14:05.834Z,100391.34
2022-08-05T13:17:32.011Z,100391.31
2022-08-05T13:20:43.722Z,100405.16
2022-08-05T13:23:50.674Z,100401.13
2022-08-05T13:26:53.797Z,100409.41
2022-08-05T13:29:59.400Z,100420.53
2022-08-05T13:34:23.461Z,100403.69
2022-08-05T13:36:38.695Z,100405.03
2022-08-05T13:40:14.207Z,100403.38
2022-08-05T13:43:02.872Z,100405.41
2022-08-05T13:46:04.314Z,100391.81
2022-08-05T13:49:09.814Z,100397.72
2022-08-05T13:52:16.630Z,100396.09
2022-08-05T13:55:41.720Z,100397.25
2022-08-05T13:58:39.632Z,100390.66
2022-08-05T14:01:46.720Z,100380.97
2022-08-05T14:05:11.577Z,100376.31
2022-08-05T14:08:21.335Z,100375.09
2022-08-05T14:11:31.318Z,100371.72
2022-08-05T14:14:32.807Z,100370.66
2022-08-05T14:17:35.514Z,100355.09
2022-08-05T14:20:37.006Z,100356.19
2022-08-05T14:23:38.754Z,100350.28
2022-08-05T14:26:47.168Z,100345.59
2022-08-05T14:29:58.108Z,100351.53
2022-08-05T14:33:00.632Z,100343.06
2022-08-05T14:36:04.068Z,100345.75
2022-08-05T14:39:05.875Z,100342.09
2022-08-05T14:42:21.345Z,100345.69
2022-08-05T14:45:23.351Z,100348.59
2022-08-05T14:48:32.516Z,100342.22
2022-08-05T14:51:42.767Z,100349.31
2022-08-05T14:54:53.302Z,100347.84
2022-08-05T14:57:56.541Z,100353.16
2022-08-05T15:01:00.325Z,100344.97
2022-08-05T15:04:03.495Z,100348.22
2022-08-05T15:07:04.980Z,100349.47
2022-08-05T15:10:09.922Z,100354.06
2022-08-05T15:13:11.626Z,100356.19
2022-08-05T15:16:13.342Z,100359.28
2022-08-05T15:19:23.719Z,100366.38
2022-08-05T15:22:27.249Z,100363.84
2022-08-05T15:25:41.098Z,100369.81
2022-08-05T15:28:52.010Z,100375.06
2022-08-05T15:31:53.532Z,100379.13
2022-08-05T15:34:54.970Z,100377.94
2022-08-05T15:38:33.185Z,100392.16
2022-08-05T15:41:21.388Z,100386.41
2022-08-05T15:44:30.206Z,100399.47
2022-08-05T15:47:32.365Z,100402.88
2022-08-05T15:50:37.454Z,100402.00
2022-08-05T15:53:51.023Z,100404.66
2022-08-05T15:56:53.133Z,100409.34
2022-08-05T15:59:57.744Z,100417.72
2022-08-05T16:02:59.687Z,100417.81
2022-08-05T16:06:01.253Z,100418.91
2022-08-05T16:09:04.025Z,100437.41
2022-08-05T16:12:05.860Z,100435.94
2022-08-05T16:15:08.084Z,100440.47
2022-08-05T16:18:12.209Z,100451.09
2022-08-05T16:21:15.895Z,100465.44
2022-08-05T16:24:39.827Z,100463.97
2022-08-05T16:28:00.151Z,100468.59
2022-08-05T16:31:01.385Z,100478.13
2022-08-05T16:34:02.914Z,100487.59
2022-08-05T16:38:01.815Z,100479.25
2022-08-05T16:40:29.593Z,100483.88
2022-08-05T16:43:33.173Z,100483.13
2022-08-05T16:46:35.030Z,100488.25
2022-08-05T16:49:38.990Z,100490.97
2022-08-05T16:52:46.150Z,100492.56
2022-08-05T16:55:47.681Z,100502.69
2022-08-05T16:58:49.211Z,100503.28
2022-08-05T17:01:54.540Z,100506.59
2022-08-05T17:04:57.065Z,100506.47
2022-08-05T17:07:58.722Z,100509.81
2022-08-05T17:11:00.593Z,100520.84
2022-08-05T17:14:06.165Z,100522.97
2022-08-05T17:17:14.270Z,100528.47
2022-08-05T17:20:16.614Z,100517.13
2022-08-05T17:24:03.545Z,100530.72
2022-08-05T17:26:40.900Z,100536.84
2022-08-05T17:29:42.498Z,100532.56
2022-08-05T17:32:43.908Z,100540.69
2022-08-05T17:36:07.553Z,100536.84
2022-08-05T17:39:24.468Z,100532.28
2022-08-05T17:42:32.276Z,100540.09
2022-08-05T17:45:38.709Z,100548.75
2022-08-05T17:48:40.382Z,100548.59
2022-08-05T17:51:46.457Z,100552.59
2022-08-05T17:54:52.110Z,100554.13
2022-08-05T17:57:54.088Z,100564.28
2022-08-05T18:00:55.553Z,100590.34
2022-08-05T18:04:04.453Z,100584.91
2022-08-05T18:07:07.205Z,100586.88
2022-08-05T18:10:20.348Z,100598.50
2022-08-05T18:13:22.677Z,100601.56
2022-08-05T18:16:27.369Z,100599.94
2022-08-05T18:19:28.790Z,100605.59
2022-08-05T18:22:36.230Z,100604.00
2022-08-05T18:25:39.424Z,100610.19
2022-08-05T18:28:41.405Z,100619.31
2022-08-05T18:31:49.698Z,100621.34
2022-08-05T18:34:51.210Z,100611.81
2022-08-05T18:37:52.662Z,100619.44
2022-08-05T18:41:55.075Z,100624.59
2022-08-05T18:44:33.342Z,100630.94
2022-08-05T18:47:37.942Z,100640.06
2022-08-05T18:52:03.016Z,100645.09
2022-08-05T18:54:19.360Z,100655.28
2022-08-05T18:57:23.940Z,100650.19
2022-08-05T19:00:29.221Z,100666.22
2022-08-05T19:03:52.707Z,100682.59
2022-08-05T19:06:53.504Z,100697.41
2022-08-05T19:09:55.537Z,100703.91
2022-08-05T19:12:57.493Z,100702.44
2022-08-05T19:16:03.525Z,100708.78
2022-08-05T19:19:05.417Z,100717.13
2022-08-05T19:22:07.004Z,100724.44
2022-08-05T19:25:10.578Z,100733.50
2022-08-05T19:28:23.245Z,100731.78
2022-08-05T19:31:26.163Z,100733.72
2022-08-05T19:34:35.355Z,100728.59
2022-08-05T19:38:04.208Z,100718.09
2022-08-05T19:40:58.264Z,100731.81
2022-08-05T19:44:12.758Z,100746.34
2022-08-05T19:47:16.309Z,100759.94
2022-08-05T19:50:19.880Z,100752.84
2022-08-05T19:54:04.707Z,100746.88
2022-08-05T19:56:42.782Z,100766.53
2022-08-05T20:00:01.230Z,100773.13
2022-08-05T20:03:12.844Z,100777.31
2022-08-05T20:06:15.976Z,100784.91
2022-08-05T20:09:30.389Z,100792.72
2022-08-05T20:12:52.061Z,100806.28
2022-08-05T20:15:56.800Z,100806.06
2022-08-05T20:18:59.142Z,100811.44
2022-08-05T20:22:02.956Z,100812.03
2022-08-05T20:25:06.817Z,100811.31
2022-08-05T20:28:14.558Z,100818.63
2022-08-05T20:31:17.534Z,100823.03
2022-08-05T20:34:23.460Z,100824.63
2022-08-05T20:38:05.499Z,100817.28
2022-08-05T20:40:47.480Z,100825.97
2022-08-05T20:43:59.684Z,100835.75
2022-08-05T20:47:05.164Z,100842.47
2022-08-05T20:50:11.377Z,100856.16
2022-08-05T20:53:15.923Z,100857.00
2022-08-05T20:56:42.283Z,100865.22
2022-08-05T21:00:11.191Z,100878.03
2022-08-05T21:03:07.576Z,100873.88
2022-08-05T21:06:28.591Z,100871.94
2022-08-05T21:09:32.282Z,100869.72
2022-08-05T21:12:35.969Z,100872.63
2022-08-05T21:15:37.411Z,100874.81
2022-08-05T21:18:38.865Z,100876.28
2022-08-05T21:21:50.994Z,100885.09
2022-08-05T21:24:54.290Z,100878.13
2022-08-05T21:27:56.373Z,100888.00
2022-08-05T21:30:58.775Z,100883.22
2022-08-05T21:34:00.192Z,100883.84
2022-08-05T21:37:04.682Z,100887.84
2022-08-05T21:40:07.202Z,100882.09
2022-08-05T21:43:23.898Z,100888.47
2022-08-05T21:46:27.259Z,100894.34
2022-08-05T21:49:59.295Z,100896.81
2022-08-05T21:52:52.347Z,100901.91
2022-08-05T21:56:04.979Z,100901.75
2022-08-05T21:59:24.113Z,100907.19
2022-08-05T22:02:27.831Z,100912.13
2022-08-05T22:05:29.409Z,100906.84
2022-08-05T22:08:52.490Z,100919.88
2022-08-05T22:11:54.629Z,100920.13
2022-08-05T22:14:56.918Z,100925.50
2022-08-05T22:18:00.058Z,100935.16
2022-08-05T22:21:04.018Z,100930.97
2022-08-05T22:24:40.248Z,100931.78
2022-08-05T22:28:08.641Z,100940.06
2022-08-05T22:31:09.025Z,100953.13
2022-08-05T22:34:12.912Z,100956.81
2022-08-05T22:37:58.076Z,100961.34
2022-08-05T22:40:49.558Z,100961.34
2022-08-05T22:43:51.630Z,100962.91
2022-08-05T22:46:53.043Z,100976.69
2022-08-05T22:50:18.062Z,100977.31
2022-08-05T22:53:16.637Z,100982.97
2022-08-05T22:56:30.621Z,100978.72
2022-08-05T22:59:47.408Z,100978.94
2022-08-05T23:02:53.914Z,100994.00
2022-08-05T23:05:55.851Z,100989.06
2022-08-05T23:08:57.270Z,100990.34
2022-08-05T23:12:20.224Z,100999.25
2022-08-05T23:15:29.494Z,100995.72
2022-08-05T23:18:36.204Z,101007.41
2022-08-05T23:21:43.025Z,101011.16
2022-08-05T23:24:51.068Z,101012.88
2022-08-05T23:28:00.165Z,101022.56
2022-08-05T23:31:17.040Z,101018.91
2022-08-05T23:34:24.605Z,101018.50
2022-08-05T23:37:26.695Z,101031.56
2022-08-05T23:40:35.803Z,101030.81
2022-08-05T23:44:05.430Z,101040.38
2022-08-05T23:47:02.645Z,101039.97
2022-08-05T23:50:16.998Z,101049.84
2022-08-05T23:53:22.599Z,101051.75
2022-08-05T23:56:27.480Z,101057.78
